Terminal Aerodrome Forecast
Issued by NWS

Home | Current Version | Previous Version | Text Only | Print | Product List | Glossary On
Versions: 1 2 3 4 5 6 7 8 9 10 11 12 13 14 15
000
FTUS46 KSEW 211700 RRA
TAFOLM
TAF
KOLM 211756Z 2118/2218 22010KT P6SM OVC020
     FM212000 23010KT P6SM SCT020 BKN035
     FM220000 24007KT P6SM SCT040
     FM221200 19004KT P6SM OVC025
      TEMPO 2212/2215 3SM BR OVC015=

USA.gov is the U.S. government's official web portal to all federal, state and local government web resources and services.